createdAt,value
2022-08-05T00:00:30.261Z,332.5
2022-08-05T00:06:03.454Z,35
2022-08-05T00:10:30.320Z,280
2022-08-05T00:15:54.569Z,332.5
2022-08-05T00:20:30.110Z,315
2022-08-05T00:25:34.581Z,320
2022-08-05T00:30:32.079Z,307.5
2022-08-05T00:35:32.961Z,320
2022-08-05T00:40:30.302Z,317.5
2022-08-05T00:45:38.171Z,317.5
2022-08-05T00:50:30.109Z,317.5
2022-08-05T00:55:33.900Z,322.5
2022-08-05T01:00:30.165Z,310
2022-08-05T01:05:30.111Z,327.5
2022-08-05T01:10:30.115Z,315
2022-08-05T01:15:35.990Z,300
2022-08-05T01:20:30.109Z,155
2022-08-05T01:25:40.325Z,155
2022-08-05T01:30:33.473Z,87.5
2022-08-05T01:35:50.341Z,62.5
2022-08-05T01:40:30.361Z,295
2022-08-05T01:45:34.673Z,307.5
2022-08-05T01:50:30.111Z,307.5
2022-08-05T01:55:30.112Z,305
2022-08-05T02:00:31.052Z,312.5
2022-08-05T02:05:30.110Z,315
2022-08-05T02:10:30.117Z,312.5
2022-08-05T02:15:33.406Z,325
2022-08-05T02:20:30.109Z,330
2022-08-05T02:25:33.194Z,317.5
2022-08-05T02:30:30.125Z,317.5
2022-08-05T02:35:33.139Z,317.5
2022-08-05T02:40:30.119Z,325
2022-08-05T02:45:51.339Z,327.5
2022-08-05T02:50:30.108Z,345
2022-08-05T02:55:52.378Z,335
2022-08-05T03:00:30.115Z,337.5
2022-08-05T03:06:52.897Z,337.5
2022-08-05T03:10:30.115Z,357.5
2022-08-05T03:15:30.104Z,5
2022-08-05T03:20:30.121Z,10
2022-08-05T03:25:32.224Z,5
2022-08-05T03:30:33.910Z,12.5
2022-08-05T03:35:30.111Z,22.5
2022-08-05T03:40:31.574Z,15
2022-08-05T03:45:30.112Z,25
2022-08-05T03:50:30.226Z,40
2022-08-05T03:55:54.495Z,27.5
2022-08-05T04:00:30.671Z,37.5
2022-08-05T04:05:30.402Z,50
2022-08-05T04:10:37.333Z,37.5
2022-08-05T04:15:33.066Z,20
2022-08-05T04:20:30.120Z,25
2022-08-05T04:25:38.666Z,350
2022-08-05T04:30:30.104Z,7.5
2022-08-05T04:36:09.563Z,352.5
2022-08-05T04:40:30.100Z,322.5
2022-08-05T04:45:31.405Z,317.5
2022-08-05T04:50:34.564Z,320
2022-08-05T04:56:00.148Z,322.5
2022-08-05T05:00:30.173Z,325
2022-08-05T05:05:30.101Z,315
2022-08-05T05:10:30.114Z,327.5
2022-08-05T05:15:56.297Z,327.5
2022-08-05T05:20:30.103Z,330
2022-08-05T05:25:32.533Z,332.5
2022-08-05T05:30:30.763Z,322.5
2022-08-05T05:35:31.557Z,325
2022-08-05T05:40:30.108Z,320
2022-08-05T05:45:30.105Z,312.5
2022-08-05T05:50:30.111Z,320
2022-08-05T05:55:51.283Z,325
2022-08-05T06:00:31.630Z,315
2022-08-05T06:05:30.110Z,320
2022-08-05T06:10:36.366Z,325
2022-08-05T06:16:27.894Z,320
2022-08-05T06:20:30.111Z,327.5
2022-08-05T06:25:59.931Z,325
2022-08-05T06:30:30.108Z,312.5
2022-08-05T06:36:02.889Z,327.5
2022-08-05T06:40:32.555Z,327.5
2022-08-05T06:45:43.884Z,292.5
2022-08-05T06:50:30.113Z,292.5
2022-08-05T06:55:30.102Z,317.5
2022-08-05T07:00:30.112Z,317.5
2022-08-05T07:05:37.085Z,317.5
2022-08-05T07:10:32.248Z,297.5
2022-08-05T07:15:34.281Z,330
2022-08-05T07:20:33.210Z,290
2022-08-05T07:25:55.763Z,312.5
2022-08-05T07:30:31.797Z,275
2022-08-05T07:35:56.351Z,317.5
2022-08-05T07:40:32.780Z,300
2022-08-05T07:45:31.243Z,302.5
2022-08-05T07:50:32.468Z,305
2022-08-05T07:55:44.138Z,320
2022-08-05T08:00:30.117Z,325
2022-08-05T08:05:30.111Z,250
2022-08-05T08:10:30.401Z,305
2022-08-05T08:15:37.560Z,287.5
2022-08-05T08:20:43.133Z,287.5
2022-08-05T08:25:59.600Z,247.5
2022-08-05T08:30:37.933Z,285
2022-08-05T08:35:34.930Z,240
2022-08-05T08:40:30.128Z,305
2022-08-05T08:45:30.581Z,277.5
2022-08-05T08:50:52.658Z,292.5
2022-08-05T08:55:31.862Z,300
2022-08-05T09:00:30.150Z,287.5
2022-08-05T09:05:38.049Z,290
2022-08-05T09:10:30.113Z,292.5
2022-08-05T09:15:30.414Z,277.5
2022-08-05T09:20:36.850Z,300
2022-08-05T09:26:00.526Z,310
2022-08-05T09:30:30.197Z,285
2022-08-05T09:35:30.112Z,270
2022-08-05T09:40:30.158Z,297.5
2022-08-05T09:46:05.670Z,267.5
2022-08-05T09:50:37.467Z,260
2022-08-05T09:55:55.816Z,315
2022-08-05T10:00:30.660Z,282.5
2022-08-05T10:05:32.640Z,312.5
2022-08-05T10:10:32.514Z,325
2022-08-05T10:15:34.230Z,290
2022-08-05T10:20:30.124Z,327.5
2022-08-05T10:25:30.101Z,335
2022-08-05T10:30:42.200Z,312.5
2022-08-05T10:35:33.884Z,310
2022-08-05T10:40:30.150Z,257.5
2022-08-05T10:45:40.595Z,260
2022-08-05T10:50:33.322Z,295
2022-08-05T10:55:30.117Z,297.5
2022-08-05T11:00:30.116Z,285
2022-08-05T11:05:31.653Z,317.5
2022-08-05T11:10:30.119Z,285
2022-08-05T11:15:59.675Z,205
2022-08-05T11:20:30.117Z,330
2022-08-05T11:26:03.941Z,282.5
2022-08-05T11:30:30.117Z,287.5
2022-08-05T11:35:30.101Z,315
2022-08-05T11:40:30.136Z,320
2022-08-05T11:46:14.758Z,320
2022-08-05T11:50:30.118Z,300
2022-08-05T11:55:31.921Z,285
2022-08-05T12:00:30.212Z,295
2022-08-05T12:05:32.476Z,282.5
2022-08-05T12:10:38.277Z,320
2022-08-05T12:15:36.033Z,270
2022-08-05T12:20:33.244Z,277.5
2022-08-05T12:25:30.102Z,292.5
2022-08-05T12:30:32.250Z,312.5
2022-08-05T12:35:36.871Z,312.5
2022-08-05T12:40:30.118Z,325
2022-08-05T12:45:36.935Z,327.5
2022-08-05T12:50:30.929Z,327.5
2022-08-05T12:55:32.736Z,290
2022-08-05T13:01:59.081Z,290
2022-08-05T13:05:33.946Z,282.5
2022-08-05T13:10:30.106Z,330
2022-08-05T13:15:36.194Z,322.5
2022-08-05T13:20:32.042Z,325
2022-08-05T13:25:52.935Z,332.5
2022-08-05T13:30:35.562Z,332.5
2022-08-05T13:35:31.572Z,325
2022-08-05T13:40:37.208Z,320
2022-08-05T13:45:30.979Z,325
2022-08-05T13:50:30.111Z,325
2022-08-05T13:55:41.364Z,310
2022-08-05T14:00:30.107Z,330
2022-08-05T14:05:48.687Z,315
2022-08-05T14:10:30.942Z,312.5
2022-08-05T14:16:06.515Z,312.5
2022-08-05T14:20:30.100Z,310
2022-08-05T14:25:30.398Z,322.5
2022-08-05T14:30:30.117Z,317.5
2022-08-05T14:35:36.343Z,317.5
2022-08-05T14:40:30.112Z,330
2022-08-05T14:45:30.106Z,327.5
2022-08-05T14:50:30.107Z,325
2022-08-05T14:55:38.875Z,312.5
2022-08-05T15:00:30.132Z,320
2022-08-05T15:06:07.135Z,315
2022-08-05T15:10:30.140Z,322.5
2022-08-05T15:15:54.672Z,320
2022-08-05T15:20:30.115Z,330
2022-08-05T15:25:41.463Z,315
2022-08-05T15:30:30.126Z,325
2022-08-05T15:35:36.145Z,322.5
2022-08-05T15:40:42.330Z,315
2022-08-05T15:45:37.145Z,347.5
2022-08-05T15:50:30.123Z,330
2022-08-05T15:56:01.513Z,347.5
2022-08-05T16:00:43.217Z,337.5
2022-08-05T16:05:30.109Z,347.5
2022-08-05T16:10:30.101Z,340
2022-08-05T16:15:31.684Z,345
2022-08-05T16:20:30.112Z,327.5
2022-08-05T16:25:32.398Z,0
2022-08-05T16:30:30.121Z,322.5
2022-08-05T16:35:30.859Z,305
2022-08-05T16:40:30.179Z,325
2022-08-05T16:46:03.003Z,340
2022-08-05T16:50:30.121Z,335
2022-08-05T16:55:30.118Z,355
2022-08-05T17:00:33.893Z,357.5
2022-08-05T17:05:30.109Z,350
2022-08-05T17:10:30.387Z,347.5
2022-08-05T17:15:48.104Z,347.5
2022-08-05T17:20:30.104Z,357.5
2022-08-05T17:25:34.278Z,0
2022-08-05T17:30:30.104Z,342.5
2022-08-05T17:35:32.489Z,357.5
2022-08-05T17:40:30.130Z,345
2022-08-05T17:45:37.995Z,7.5
2022-08-05T17:50:30.912Z,7.5
2022-08-05T17:55:34.758Z,345
2022-08-05T18:00:30.130Z,2.5
2022-08-05T18:05:35.309Z,357.5
2022-08-05T18:10:30.115Z,355
2022-08-05T18:15:31.140Z,337.5
2022-08-05T18:20:31.469Z,337.5
2022-08-05T18:25:32.846Z,347.5
2022-08-05T18:30:30.121Z,350
2022-08-05T18:35:49.923Z,357.5
2022-08-05T18:40:30.119Z,355
2022-08-05T18:45:41.066Z,337.5
2022-08-05T18:50:42.430Z,352.5
2022-08-05T18:55:30.122Z,357.5
2022-08-05T19:00:30.113Z,352.5
2022-08-05T19:06:06.585Z,335
2022-08-05T19:10:30.108Z,345
2022-08-05T19:15:57.018Z,355
2022-08-05T19:20:30.126Z,0
2022-08-05T19:25:39.012Z,342.5
2022-08-05T19:30:30.111Z,347.5
2022-08-05T19:35:56.183Z,15
2022-08-05T19:40:30.122Z,22.5
2022-08-05T19:45:30.551Z,17.5
2022-08-05T19:50:30.113Z,10
2022-08-05T19:56:11.988Z,15
2022-08-05T20:00:30.184Z,12.5
2022-08-05T20:05:38.931Z,2.5
2022-08-05T20:10:30.118Z,20
2022-08-05T20:15:49.243Z,10
2022-08-05T20:20:30.122Z,12.5
2022-08-05T20:25:33.906Z,7.5
2022-08-05T20:30:30.119Z,25
2022-08-05T20:35:31.523Z,20
2022-08-05T20:40:30.109Z,10
2022-08-05T20:45:47.837Z,12.5
2022-08-05T20:50:30.180Z,5
2022-08-05T20:55:55.804Z,355
2022-08-05T21:00:41.701Z,5
2022-08-05T21:05:38.150Z,22.5
2022-08-05T21:10:30.108Z,10
2022-08-05T21:15:32.963Z,10
2022-08-05T21:20:32.559Z,2.5
2022-08-05T21:25:33.630Z,2.5
2022-08-05T21:30:30.121Z,10
2022-08-05T21:35:43.896Z,20
2022-08-05T21:40:30.125Z,5
2022-08-05T21:45:51.749Z,2.5
2022-08-05T21:50:30.110Z,2.5
2022-08-05T21:55:43.303Z,0
2022-08-05T22:00:30.174Z,2.5
2022-08-05T22:05:30.110Z,357.5
2022-08-05T22:10:30.949Z,352.5
2022-08-05T22:15:57.429Z,0
2022-08-05T22:20:30.122Z,357.5
2022-08-05T22:25:31.117Z,15
2022-08-05T22:30:32.378Z,10
2022-08-05T22:35:31.194Z,5
2022-08-05T22:40:30.556Z,7.5
2022-08-05T22:45:30.644Z,5
2022-08-05T22:50:30.118Z,5
2022-08-05T22:55:37.047Z,15
2022-08-05T23:00:30.115Z,12.5
2022-08-05T23:05:30.110Z,12.5
2022-08-05T23:10:30.121Z,0
2022-08-05T23:15:35.113Z,350
2022-08-05T23:20:30.111Z,350
2022-08-05T23:25:50.618Z,345
2022-08-05T23:30:31.153Z,347.5
2022-08-05T23:35:34.303Z,357.5
2022-08-05T23:40:30.212Z,2.5
2022-08-05T23:45:30.117Z,5
2022-08-05T23:50:30.132Z,5
2022-08-05T23:55:30.833Z,5
